• Join FlightAware (Why Join?)
  • Login
  • US Flag 
01:12PM EDT


 

Airport Tracker/Info


-or-


 

Live Flight TrackerFlight Track Log ✈ KLM622 ✈ 03-May-2012 ✈ KATL - EHAM / AMS

Flight Track Log - Related Links

Times and Time Zones

All times are in EDT time to prevent confusion due to time zone crossing. See the KLM622 flight status page for this flight to view local times or setup timezone preferences in your user account.

Time Position Orientation Groundspeed Altitude Reporting Facility
EDT Latitude Longitude Course Direction KTS MPH feet Rate Location/Type
11:06PM 34.4327 -84.1627 12° North  Level FlightAware Approximate
11:07PM 34.5620 -84.1288 17° North  Level FlightAware Approximate
11:08PM 34.6886 -84.0816 14° North  Level FlightAware Approximate
11:09PM 34.8168 -84.0416 13° North  Level FlightAware Approximate
11:10PM 34.9458 -84.0052 15° North  Level FlightAware Approximate
11:11PM 35.0738 -83.9640 17° North  Level FlightAware Approximate
11:12PM 35.2003 -83.9166 29° Northeast  Level FlightAware Approximate
11:13PM 35.3166 -83.8389 360° North  Level FlightAware Approximate
11:14PM 35.4473 -83.8394 30° Northeast  Level FlightAware Approximate
11:15PM 35.5625 -83.7591 30° Northeast  Level FlightAware Approximate
11:16PM 35.6776 -83.6787 347° North  Level FlightAware Approximate
11:17PM 35.8059 -83.7147 31° Northeast  Level FlightAware Approximate
11:18PM 35.9193 -83.6304 358° North  Level FlightAware Approximate
11:19PM 36.0488 -83.6352 33° Northeast  Level FlightAware Approximate
11:20PM 36.1601 -83.5465 33° Northeast  Level FlightAware Approximate
11:21PM 36.2713 -83.4576 33° Northeast  Level FlightAware Approximate
11:22PM 36.3825 -83.3684 33° Northeast  Level FlightAware Approximate
11:23PM 36.4936 -83.2789 33° Northeast  Level FlightAware Approximate
11:24PM 36.6047 -83.1892 33° Northeast  Level FlightAware Approximate
11:25PM 36.7152 -83.0983 33° Northeast  Level FlightAware Approximate
11:26PM 36.8256 -83.0071 34° Northeast  Level FlightAware Approximate
11:27PM 36.9359 -82.9157 34° Northeast  Level FlightAware Approximate
11:28PM 37.0462 -82.8240 34° Northeast  Level FlightAware Approximate
11:29PM 37.1564 -82.7320 34° Northeast  Level FlightAware Approximate
11:30PM 37.2662 -82.6391 34° Northeast  Level FlightAware Approximate
11:31PM 37.3758 -82.5458 34° Northeast  Level FlightAware Approximate
11:32PM 37.4854 -82.4523 35° Northeast  Level FlightAware Approximate
11:33PM 37.5945 -82.3576 35° Northeast  Level FlightAware Approximate
11:34PM 37.7034 -82.2626 35° Northeast  Level FlightAware Approximate
11:35PM 37.8122 -82.1673 35° Northeast  Level FlightAware Approximate
11:36PM 37.9206 -82.0709 35° Northeast  Level FlightAware Approximate
11:37PM 38.0288 -81.9742 35° Northeast  Level FlightAware Approximate
11:38PM 38.1370 -81.8772 35° Northeast  Level FlightAware Approximate
11:39PM 38.2450 -81.7799 35° Northeast  Level FlightAware Approximate
11:40PM 38.3531 -81.6824 35° Northeast  Level FlightAware Approximate
11:41PM 38.4610 -81.5845 35° Northeast  Level FlightAware Approximate
11:42PM 38.5688 -81.4864 35° Northeast  Level FlightAware Approximate
11:43PM 38.6766 -81.3879 36° Northeast  Level FlightAware Approximate
11:44PM 38.7842 -81.2892 356° North  Level FlightAware Approximate
11:45PM 38.9012 -81.3002 37° Northeast  Level FlightAware Approximate
11:46PM 39.0069 -81.1978 37° Northeast  Level FlightAware Approximate
11:47PM 39.1125 -81.0950 37° Northeast  Level FlightAware Approximate
11:48PM 39.2181 -80.9920 37° Northeast  Level FlightAware Approximate
11:49PM 39.3235 -80.8886 36° Northeast  Level FlightAware Approximate
11:50PM 39.4301 -80.7870 37° Northeast  Level FlightAware Approximate
11:51PM 39.5353 -80.6829 37° Northeast  Level FlightAware Approximate
11:52PM 39.6404 -80.5785 37° Northeast  Level FlightAware Approximate
11:53PM 39.7454 -80.4738 38° Northeast  Level FlightAware Approximate
11:54PM 39.8495 -80.3677 38° Northeast  Level FlightAware Approximate
11:55PM 39.9541 -80.2618 38° Northeast  Level FlightAware Approximate
11:56PM 40.0586 -80.1557 37° Northeast  Level FlightAware Approximate
11:57PM 40.1643 -80.0516 38° Northeast  Level FlightAware Approximate
11:58PM 40.2688 -79.9451 38° Northeast  Level FlightAware Approximate
11:59PM 40.3732 -79.8382 38° Northeast  Level FlightAware Approximate
12:00AM 40.4774 -79.7311 38° Northeast  Level FlightAware Approximate
12:01AM 40.5816 -79.6236 39° Northeast  Level FlightAware Approximate
12:02AM 40.6844 -79.5138 38° Northeast  Level FlightAware Approximate
12:03AM 40.7884 -79.4056 38° Northeast  Level FlightAware Approximate
12:04AM 40.8922 -79.2971 38° Northeast  Level FlightAware Approximate
12:05AM 40.9960 -79.1882 38° Northeast  Level FlightAware Approximate
12:06AM 41.0996 -79.0790 39° Northeast  Level FlightAware Approximate
12:07AM 41.2032 -78.9695 39° Northeast  Level FlightAware Approximate
12:08AM 41.3066 -78.8596 39° Northeast  Level FlightAware Approximate
12:09AM 41.4099 -78.7494 37° Northeast  Level FlightAware Approximate
12:10AM 41.5147 -78.6451 39° Northeast  Level FlightAware Approximate
12:11AM 41.6177 -78.5340 39° Northeast  Level FlightAware Approximate
12:12AM 41.7206 -78.4226 39° Northeast  Level FlightAware Approximate
12:13AM 41.8235 -78.3107 39° Northeast  Level FlightAware Approximate
12:14AM 41.9262 -78.1985 39° Northeast  Level FlightAware Approximate
12:15AM 42.0288 -78.0860 40° Northeast  Level FlightAware Approximate
12:16AM 42.1302 -77.9718 39° Northeast  Level FlightAware Approximate
12:17AM 42.2326 -77.8586 42° Northeast  Level FlightAware Approximate
12:18AM 42.3313 -77.7397 39° Northeast  Level FlightAware Approximate
12:19AM 42.4337 -77.6260 41° Northeast  Level FlightAware Approximate
12:20AM 42.5341 -77.5093 49° Northeast  Level FlightAware Approximate
12:21AM 42.6201 -77.3726 50° Northeast  Level FlightAware Approximate
12:22AM 42.7059 -77.2355 50° Northeast  Level FlightAware Approximate
12:23AM 42.7915 -77.0980 50° Northeast  Level FlightAware Approximate
12:24AM 42.8770 -76.9601 50° Northeast  Level FlightAware Approximate
12:25AM 42.9623 -76.8219 50° Northeast  Level FlightAware Approximate
12:26AM 43.0474 -76.6833 50° Northeast  Level FlightAware Approximate
12:27AM 43.1324 -76.5443 50° Northeast  Level FlightAware Approximate
12:28AM 43.2172 -76.4049 50° Northeast  Level FlightAware Approximate
12:29AM 43.3018 -76.2651 50° Northeast  Level FlightAware Approximate
12:30AM 43.3863 -76.1249 50° Northeast  Level FlightAware Approximate
12:31AM 43.4706 -75.9843 51° Northeast  Level FlightAware Approximate
12:32AM 43.5547 -75.8434 51° Northeast  Level FlightAware Approximate
12:33AM 43.6386 -75.7020 51° Northeast  Level FlightAware Approximate
12:34AM 43.7217 -75.5614 51° Northeast  Level FlightAware Approximate
12:35AM 43.8046 -75.4205 51° Northeast  Level FlightAware Approximate
12:36AM 43.8874 -75.2791 51° Northeast  Level FlightAware Approximate
12:37AM 43.9699 -75.1374 51° Northeast  Level FlightAware Approximate
12:38AM 44.0523 -74.9952 51° Northeast  Level FlightAware Approximate
12:39AM 44.1345 -74.8527 52° Northeast  Level FlightAware Approximate
12:40AM 44.2156 -74.7087 52° Northeast  Level FlightAware Approximate
12:41AM 44.2965 -74.5643 53° Northeast  Level FlightAware Approximate
12:42AM 44.3749 -74.4171 53° Northeast  Level FlightAware Approximate
12:43AM 44.4532 -74.2694 53° Northeast  Level FlightAware Approximate
12:44AM 44.5312 -74.1214 53° Northeast  Level FlightAware Approximate
12:45AM 44.6103 -73.9743 53° Northeast  Level FlightAware Approximate
12:46AM 44.6892 -73.8268 53° Northeast  Level FlightAware Approximate
12:47AM 44.7679 -73.6788 53° Northeast  Level FlightAware Approximate
12:48AM 44.8465 -73.5305 53° Northeast  Level FlightAware Approximate
12:49AM 44.9248 -73.3818 53° Northeast  Level FlightAware Approximate
12:50AM 45.0030 -73.2327 54° Northeast  Level FlightAware Approximate
12:51AM 45.0809 -73.0832 54° Northeast  Level FlightAware Approximate
12:52AM 45.1587 -72.9332 54° Northeast  Level FlightAware Approximate
12:53AM 45.2363 -72.7829 54° Northeast  Level FlightAware Approximate
12:54AM 45.3136 -72.6321 54° Northeast  Level FlightAware Approximate
12:55AM 45.3908 -72.4810 54° Northeast  Level FlightAware Approximate
12:56AM 45.4678 -72.3294 54° Northeast  Level FlightAware Approximate
12:57AM 45.5445 -72.1774 54° Northeast  Level FlightAware Approximate
12:58AM 45.6211 -72.0250 54° Northeast  Level FlightAware Approximate
12:59AM 45.6975 -71.8722 54° Northeast  Level FlightAware Approximate
01:00AM 45.7736 -71.7189 55° Northeast  Level FlightAware Approximate
01:01AM 45.8496 -71.5653 55° Northeast  Level FlightAware Approximate
01:02AM 45.9253 -71.4112 55° Northeast  Level FlightAware Approximate
01:03AM 46.0009 -71.2567 55° Northeast  Level FlightAware Approximate
01:04AM 46.0762 -71.1018 55° Northeast  Level FlightAware Approximate
01:05AM 46.1513 -70.9464 23° Northeast  Level FlightAware Approximate
01:06AM 46.2699 -70.8728 56° Northeast  Level FlightAware Approximate
01:07AM 46.3434 -70.7153 76° East  Level FlightAware Approximate
01:08AM 46.3737 -70.5401 56° Northeast  Level FlightAware Approximate
01:09AM 46.4476 -70.3827 56° Northeast  Level FlightAware Approximate
01:10AM 46.5213 -70.2248 56° Northeast  Level FlightAware Approximate
01:11AM 46.5947 -70.0666 56° Northeast  Level FlightAware Approximate
01:12AM 46.6680 -69.9079 102° East  Level FlightAware Approximate
01:13AM 46.6406 -69.7268 55° Northeast  Level FlightAware Approximate
01:14AM 46.7155 -69.5695 55° Northeast  Level FlightAware Approximate
01:15AM 46.7901 -69.4119 55° Northeast  Level FlightAware Approximate
01:16AM 46.8645 -69.2538 56° Northeast  Level FlightAware Approximate
01:17AM 46.9387 -69.0952 56° Northeast  Level FlightAware Approximate
01:18AM 47.0127 -68.9362 56° Northeast  Level FlightAware Approximate
01:19AM 47.0865 -68.7768 56° Northeast  Level FlightAware Approximate
01:20AM 47.1600 -68.6170 56° Northeast  Level FlightAware Approximate
01:21AM 47.2333 -68.4566 56° Northeast  Level FlightAware Approximate
01:22AM 47.3064 -68.2959 56° Northeast  Level FlightAware Approximate
01:23AM 47.3793 -68.1347 56° Northeast  Level FlightAware Approximate
01:24AM 47.4519 -67.9731 56° Northeast  Level FlightAware Approximate
01:25AM 47.5256 -67.8123 53° Northeast  Level FlightAware Approximate
01:26AM 47.6039 -67.6560 53° Northeast  Level FlightAware Approximate
01:27AM 47.6819 -67.4992 54° Northeast  Level FlightAware Approximate
01:28AM 47.7597 -67.3420 54° Northeast  Level FlightAware Approximate
01:29AM 47.8373 -67.1843 54° Northeast  Level FlightAware Approximate
01:30AM 47.9146 -67.0262 54° Northeast  Level FlightAware Approximate
01:31AM 47.9918 -66.8675 54° Northeast  Level FlightAware Approximate
01:32AM 48.0687 -66.7084 54° Northeast  Level FlightAware Approximate
01:33AM 48.1454 -66.5488 54° Northeast  Level FlightAware Approximate
01:34AM 48.2219 -66.3888 54° Northeast  Level FlightAware Approximate
01:35AM 48.2982 -66.2282 55° Northeast  Level FlightAware Approximate
01:36AM 48.3742 -66.0672 55° Northeast  Level FlightAware Approximate
01:37AM 48.4501 -65.9057 55° Northeast  Level FlightAware Approximate
01:38AM 48.5257 -65.7437 55° Northeast  Level FlightAware Approximate
01:39AM 48.6010 -65.5813 55° Northeast  Level FlightAware Approximate
01:40AM 48.6762 -65.4183 55° Northeast  Level FlightAware Approximate
01:41AM 48.7511 -65.2549 55° Northeast  Level FlightAware Approximate
01:42AM 48.8258 -65.0910 55° Northeast  Level FlightAware Approximate
01:43AM 48.9002 -64.9266 56° Northeast  Level FlightAware Approximate
01:44AM 48.9744 -64.7617 56° Northeast  Level FlightAware Approximate
01:45AM 49.0484 -64.5963 56° Northeast  Level FlightAware Approximate
01:46AM 49.1221 -64.4304 56° Northeast  Level FlightAware Approximate
01:47AM 49.1956 -64.2640 56° Northeast  Level FlightAware Approximate
01:48AM 49.2689 -64.0971 56° Northeast  Level FlightAware Approximate
01:49AM 49.3419 -63.9298 55° Northeast  Level FlightAware Approximate
01:50AM 49.4167 -63.7640 55° Northeast  Level FlightAware Approximate
01:51AM 49.4912 -63.5977 55° Northeast  Level FlightAware Approximate
01:52AM 49.5655 -63.4309 56° Northeast  Level FlightAware Approximate
01:53AM 49.6395 -63.2635 56° Northeast  Level FlightAware Approximate
01:54AM 49.7133 -63.0957 56° Northeast  Level FlightAware Approximate
01:55AM 49.7868 -62.9274 56° Northeast  Level FlightAware Approximate
01:56AM 49.8602 -62.7585 56° Northeast  Level FlightAware Approximate
01:57AM 49.9332 -62.5892 56° Northeast  Level FlightAware Approximate
01:58AM 50.0060 -62.4193 56° Northeast  Level FlightAware Approximate
01:59AM 50.0786 -62.2489 57° Northeast  Level FlightAware Approximate
02:00AM 50.1509 -62.0780 57° Northeast  Level FlightAware Approximate
02:01AM 50.2230 -61.9066 57° Northeast  Level FlightAware Approximate
02:02AM 50.2948 -61.7346 57° Northeast  Level FlightAware Approximate
02:03AM 50.3664 -61.5622 57° Northeast  Level FlightAware Approximate
02:04AM 50.4377 -61.3892 58° Northeast  Level FlightAware Approximate
02:05AM 50.5062 -61.2132 59° Northeast  Level FlightAware Approximate
02:06AM 50.5744 -61.0367 59° Northeast  Level FlightAware Approximate
02:07AM 50.6424 -60.8597 59° Northeast  Level FlightAware Approximate
02:08AM 50.7101 -60.6821 59° Northeast  Level FlightAware Approximate
02:09AM 50.7775 -60.5041 59° Northeast  Level FlightAware Approximate
02:10AM 50.8447 -60.3255 59° Northeast  Level FlightAware Approximate
02:11AM 50.9115 -60.1465 59° Northeast  Level FlightAware Approximate
02:12AM 50.9782 -59.9669 60° Northeast  Level FlightAware Approximate
02:13AM 51.0445 -59.7868 60° Northeast  Level FlightAware Approximate
02:14AM 51.1105 -59.6062 72° East  Level FlightAware Approximate
02:15AM 51.1500 -59.4090 62° Northeast  Level FlightAware Approximate
02:16AM 51.2123 -59.2246 62° Northeast  Level FlightAware Approximate
02:17AM 51.2743 -59.0396 62° Northeast  Level FlightAware Approximate
02:18AM 51.3359 -58.8542 62° Northeast  Level FlightAware Approximate
02:19AM 51.3973 -58.6683 62° Northeast  Level FlightAware Approximate
02:20AM 51.4584 -58.4819 62° Northeast  Level FlightAware Approximate
02:21AM 51.5191 -58.2950 62° Northeast  Level FlightAware Approximate
02:22AM 51.5796 -58.1076 63° Northeast  Level FlightAware Approximate
02:23AM 51.6398 -57.9196 63° Northeast  Level FlightAware Approximate
02:24AM 51.6997 -57.7312 63° Northeast  Level FlightAware Approximate
02:25AM 51.7593 -57.5423 63° Northeast  Level FlightAware Approximate
02:26AM 51.8185 -57.3529 63° Northeast  Level FlightAware Approximate
02:27AM 51.8775 -57.1630 63° Northeast  Level FlightAware Approximate
02:28AM 51.9362 -56.9726 64° Northeast  Level FlightAware Approximate
02:29AM 51.9945 -56.7817 64° Northeast  Level FlightAware Approximate
02:30AM 52.0526 -56.5903 64° Northeast  Level FlightAware Approximate
02:31AM 52.1103 -56.3984 64° Northeast  Level FlightAware Approximate
02:32AM 52.1677 -56.2060 64° Northeast  Level FlightAware Approximate
02:33AM 52.2248 -56.0131 64° Northeast  Level FlightAware Approximate
02:34AM 52.2816 -55.8197 64° Northeast  Level FlightAware Approximate
02:35AM 52.3381 -55.6259 65° Northeast  Level FlightAware Approximate
02:36AM 52.3942 -55.4315 65° Northeast  Level FlightAware Approximate
02:37AM 52.4501 -55.2366 65° Northeast  Level FlightAware Approximate
02:38AM 52.5056 -55.0413 65° Northeast  Level FlightAware Approximate
02:39AM 52.5608 -54.8454 65° Northeast  Level FlightAware Approximate
02:40AM 52.6157 -54.6491 65° Northeast  Level FlightAware Approximate
02:41AM 52.6702 -54.4522 66° East  Level FlightAware Approximate
02:42AM 52.7244 -54.2549 66° East  Level FlightAware Approximate
02:43AM 52.7783 -54.0571 66° East  Level FlightAware Approximate
02:44AM 52.8319 -53.8588 66° East  Level FlightAware Approximate
02:45AM 52.8845 -53.6596 66° East  Level FlightAware Approximate
02:46AM 52.9369 -53.4599 67° East  Level FlightAware Approximate
02:47AM 52.9888 -53.2597 67° East  Level FlightAware Approximate
02:48AM 53.0405 -53.0590 67° East  Level FlightAware Approximate
02:49AM 53.0918 -52.8579 67° East  Level FlightAware Approximate
02:50AM 53.1427 -52.6563 67° East  Level FlightAware Approximate
02:51AM 53.1934 -52.4542 67° East  Level FlightAware Approximate
02:52AM 53.2436 -52.2516 68° East  Level FlightAware Approximate
02:53AM 53.2936 -52.0485 68° East  Level FlightAware Approximate
02:54AM 53.3432 -51.8450 68° East  Level FlightAware Approximate
02:55AM 53.3924 -51.6410 68° East  Level FlightAware Approximate
02:56AM 53.4413 -51.4366 68° East  Level FlightAware Approximate
02:57AM 53.4898 -51.2316 68° East  Level FlightAware Approximate
02:58AM 53.5380 -51.0262 69° East  Level FlightAware Approximate
02:59AM 53.5859 -50.8204 69° East  Level FlightAware Approximate
03:00AM 53.6333 -50.6140 69° East  Level FlightAware Approximate
03:01AM 53.6805 -50.4072 69° East  Level FlightAware Approximate
03:02AM 53.7272 -50.2000 69° East  Level FlightAware Approximate
03:03AM 53.7737 -49.9922 69° East  Level FlightAware Approximate
03:04AM 53.8197 -49.7841 70° East  Level FlightAware Approximate
03:05AM 53.8654 -49.5754 70° East  Level FlightAware Approximate
03:06AM 53.9107 -49.3663 70° East  Level FlightAware Approximate
03:07AM 53.9557 -49.1568 70° East  Level FlightAware Approximate
03:08AM 54.0003 -48.9468 70° East  Level FlightAware Approximate
03:09AM 54.0445 -48.7364 70° East  Level FlightAware Approximate
03:10AM 54.0884 -48.5255 71° East  Level FlightAware Approximate
03:11AM 54.1319 -48.3142 71° East  Level FlightAware Approximate
03:12AM 54.1750 -48.1024 71° East  Level FlightAware Approximate
03:13AM 54.2178 -47.8902 71° East  Level FlightAware Approximate
03:14AM 54.2601 -47.6775 71° East  Level FlightAware Approximate
03:15AM 54.3021 -47.4644 71° East  Level FlightAware Approximate
03:16AM 54.3438 -47.2509 72° East  Level FlightAware Approximate
03:17AM 54.3850 -47.0370 72° East  Level FlightAware Approximate
03:18AM 54.4259 -46.8226 72° East  Level FlightAware Approximate
03:19AM 54.4664 -46.6078 72° East  Level FlightAware Approximate
03:20AM 54.5065 -46.3925 72° East  Level FlightAware Approximate
03:21AM 54.5462 -46.1769 72° East  Level FlightAware Approximate
03:22AM 54.5855 -45.9608 73° East  Level FlightAware Approximate
03:23AM 54.6245 -45.7443 73° East  Level FlightAware Approximate
03:24AM 54.6631 -45.5274 73° East  Level FlightAware Approximate
03:25AM 54.7012 -45.3101 73° East  Level FlightAware Approximate
03:26AM 54.7390 -45.0924 73° East  Level FlightAware Approximate
03:27AM 54.7764 -44.8743 74° East  Level FlightAware Approximate
03:28AM 54.8134 -44.6558 74° East  Level FlightAware Approximate
03:29AM 54.8501 -44.4368 74° East  Level FlightAware Approximate
03:30AM 54.8863 -44.2175 74° East  Level FlightAware Approximate
03:31AM 54.9221 -43.9978 74° East  Level FlightAware Approximate
03:32AM 54.9576 -43.7777 74° East  Level FlightAware Approximate
03:33AM 54.9926 -43.5572 75° East  Level FlightAware Approximate
03:34AM 55.0272 -43.3364 75° East  Level FlightAware Approximate
03:35AM 55.0614 -43.1151 75° East  Level FlightAware Approximate
03:36AM 55.0953 -42.8935 75° East  Level FlightAware Approximate
03:37AM 55.1287 -42.6715 75° East  Level FlightAware Approximate
03:38AM 55.1617 -42.4491 76° East  Level FlightAware Approximate
03:39AM 55.1943 -42.2264 76° East  Level FlightAware Approximate
03:40AM 55.2265 -42.0033 76° East  Level FlightAware Approximate
03:41AM 55.2583 -41.7799 76° East  Level FlightAware Approximate
03:42AM 55.2897 -41.5560 76° East  Level FlightAware Approximate
03:43AM 55.3207 -41.3319 76° East  Level FlightAware Approximate
03:44AM 55.3513 -41.1074 59° Northeast  Level FlightAware Approximate
03:45AM 55.4177 -40.9085 77° East  Level FlightAware Approximate
03:46AM 55.4460 -40.6825 78° East  Level FlightAware Approximate
03:47AM 55.4739 -40.4562 78° East  Level FlightAware Approximate
03:48AM 55.5014 -40.2296 78° East  Level FlightAware Approximate
03:49AM 55.5284 -40.0027 78° East  Level FlightAware Approximate
03:50AM 55.5550 -39.7754 78° East  Level FlightAware Approximate
03:51AM 55.5812 -39.5479 79° East  Level FlightAware Approximate
03:52AM 55.6070 -39.3200 79° East  Level FlightAware Approximate
03:53AM 55.6324 -39.0919 79° East  Level FlightAware Approximate
03:54AM 55.6573 -38.8634 79° East  Level FlightAware Approximate
03:55AM 55.6818 -38.6347 79° East  Level FlightAware Approximate
03:56AM 55.7059 -38.4057 80° East  Level FlightAware Approximate
03:57AM 55.7296 -38.1764 80° East  Level FlightAware Approximate
03:58AM 55.7528 -37.9468 78° East  Level FlightAware Approximate
03:59AM 55.7796 -37.7185 80° East  Level FlightAware Approximate
04:00AM 55.8019 -37.4884 80° East  Level FlightAware Approximate
04:01AM 55.8238 -37.2580 80° East  Level FlightAware Approximate
04:02AM 55.8453 -37.0273 81° East  Level FlightAware Approximate
04:03AM 55.8663 -36.7964 81° East  Level FlightAware Approximate
04:04AM 55.8869 -36.5652 81° East  Level FlightAware Approximate
04:05AM 55.9070 -36.3338 81° East  Level FlightAware Approximate
04:06AM 55.9268 -36.1022 81° East  Level FlightAware Approximate
04:07AM 55.9460 -35.8703 82° East  Level FlightAware Approximate
04:08AM 55.9649 -35.6382 82° East  Level FlightAware Approximate
04:09AM 55.9833 -35.4059 82° East  Level FlightAware Approximate
04:10AM 56.0013 -35.1733 82° East  Level FlightAware Approximate
04:11AM 56.0188 -34.9406 83° East  Level FlightAware Approximate
04:12AM 56.0352 -34.7074 83° East  Level FlightAware Approximate
04:13AM 56.0519 -34.4743 83° East  Level FlightAware Approximate
04:14AM 56.0681 -34.2409 83° East  Level FlightAware Approximate
04:15AM 56.0839 -34.0073 83° East  Level FlightAware Approximate
04:16AM 56.0992 -33.7736 83° East  Level FlightAware Approximate
04:17AM 56.1142 -33.5397 84° East  Level FlightAware Approximate
04:18AM 56.1286 -33.3055 84° East  Level FlightAware Approximate
04:19AM 56.1426 -33.0713 84° East  Level FlightAware Approximate
04:20AM 56.1562 -32.8368 84° East  Level FlightAware Approximate
04:21AM 56.1693 -32.6022 84° East  Level FlightAware Approximate
04:22AM 56.1820 -32.3674 85° East  Level FlightAware Approximate
04:23AM 56.1943 -32.1325 85° East  Level FlightAware Approximate
04:24AM 56.2061 -31.8974 85° East  Level FlightAware Approximate
04:25AM 56.2174 -31.6622 85° East  Level FlightAware Approximate
04:26AM 56.2284 -31.4268 85° East  Level FlightAware Approximate
04:27AM 56.2388 -31.1914 86° East  Level FlightAware Approximate
04:28AM 56.2488 -30.9557 86° East  Level FlightAware Approximate
04:29AM 56.2584 -30.7200 86° East  Level FlightAware Approximate
04:30AM 56.2675 -30.4842 86° East  Level FlightAware Approximate
04:31AM 56.2762 -30.2482 86° East  Level FlightAware Approximate
04:32AM 56.2844 -30.0121 87° East  Level FlightAware Approximate
04:33AM 56.2907 -29.7761 87° East  Level FlightAware Approximate
04:34AM 56.2981 -29.5399 87° East  Level FlightAware Approximate
04:35AM 56.3051 -29.3036 87° East  Level FlightAware Approximate
04:36AM 56.3116 -29.0672 87° East  Level FlightAware Approximate
04:37AM 56.3176 -28.8307 87° East  Level FlightAware Approximate
04:38AM 56.3233 -28.5941 88° East  Level FlightAware Approximate
04:39AM 56.3284 -28.3575 88° East  Level FlightAware Approximate
04:40AM 56.3331 -28.1208 88° East  Level FlightAware Approximate
04:41AM 56.3374 -27.8841 88° East  Level FlightAware Approximate
04:42AM 56.3412 -27.6473 88° East  Level FlightAware Approximate
04:43AM 56.3446 -27.4104 89° East  Level FlightAware Approximate
04:44AM 56.3475 -27.1736 89° East  Level FlightAware Approximate
04:45AM 56.3499 -26.9367 89° East  Level FlightAware Approximate
04:46AM 56.3519 -26.6997 89° East  Level FlightAware Approximate
04:47AM 56.3535 -26.4628 89° East  Level FlightAware Approximate
04:48AM 56.3545 -26.2258 90° East  Level FlightAware Approximate
04:49AM 56.3552 -25.9888 90° East  Level FlightAware Approximate
04:50AM 56.3554 -25.7518 90° East  Level FlightAware Approximate
04:51AM 56.3551 -25.5148 90° East  Level FlightAware Approximate
04:52AM 56.3544 -25.2779 90° East  Level FlightAware Approximate
04:53AM 56.3532 -25.0409 91° East  Level FlightAware Approximate
04:54AM 56.3516 -24.8039 91° East  Level FlightAware Approximate
04:55AM 56.3495 -24.5670 91° East  Level FlightAware Approximate
04:56AM 56.3470 -24.3301 91° East  Level FlightAware Approximate
04:57AM 56.3441 -24.0932 91° East  Level FlightAware Approximate
04:58AM 56.3406 -23.8564 92° East  Level FlightAware Approximate
04:59AM 56.3368 -23.6196 92° East  Level FlightAware Approximate
05:00AM 56.3324 -23.3829 92° East  Level FlightAware Approximate
05:01AM 56.3276 -23.1462 92° East  Level FlightAware Approximate
05:02AM 56.3224 -22.9096 92° East  Level FlightAware Approximate
05:03AM 56.3167 -22.6731 93° East  Level FlightAware Approximate
05:04AM 56.3106 -22.4366 93° East  Level FlightAware Approximate
05:05AM 56.3040 -22.2002 93° East  Level FlightAware Approximate
05:06AM 56.2970 -21.9639 93° East  Level FlightAware Approximate
05:07AM 56.2895 -21.7277 93° East  Level FlightAware Approximate
05:08AM 56.2816 -21.4916 94° East  Level FlightAware Approximate
05:09AM 56.2732 -21.2555 94° East  Level FlightAware Approximate
05:10AM 56.2644 -21.0196 94° East  Level FlightAware Approximate
05:11AM 56.2551 -20.7838 94° East  Level FlightAware Approximate
05:12AM 56.2454 -20.5481 94° East  Level FlightAware Approximate
05:13AM 56.2352 -20.3125 95° East  Level FlightAware Approximate
05:14AM 56.2246 -20.0771 95° East  Level FlightAware Approximate
05:15AM 56.2135 -19.8418 95° East  Level FlightAware Approximate
05:16AM 56.2020 -19.6066 95° East  Level FlightAware Approximate
05:17AM 56.1900 -19.3716 95° East  Level FlightAware Approximate
05:18AM 56.1776 -19.1367 96° East  Level FlightAware Approximate
05:19AM 56.1648 -18.9020 96° East  Level FlightAware Approximate
05:20AM 56.1515 -18.6674 96° East  Level FlightAware Approximate
05:21AM 56.1377 -18.4331 96° East  Level FlightAware Approximate
05:22AM 56.1236 -18.1988 96° East  Level FlightAware Approximate
05:23AM 56.1089 -17.9648 96° East  Level FlightAware Approximate
05:24AM 56.0939 -17.7309 97° East  Level FlightAware Approximate
05:25AM 56.0784 -17.4972 97° East  Level FlightAware Approximate
05:26AM 56.0624 -17.2637 97° East  Level FlightAware Approximate
05:27AM 56.0460 -17.0304 97° East  Level FlightAware Approximate
05:28AM 56.0292 -16.7973 97° East  Level FlightAware Approximate
05:29AM 56.0119 -16.5644 98° East  Level FlightAware Approximate
05:30AM 55.9942 -16.3318 98° East  Level FlightAware Approximate
05:31AM 55.9761 -16.0993 98° East  Level FlightAware Approximate
05:32AM 55.9575 -15.8671 98° East  Level FlightAware Approximate
05:33AM 55.9385 -15.6350 98° East  Level FlightAware Approximate
05:34AM 55.9190 -15.4033 99° East  Level FlightAware Approximate
05:35AM 55.8991 -15.1717 99° East  Level FlightAware Approximate
05:36AM 55.8788 -14.9404 99° East  Level FlightAware Approximate
05:37AM 55.8581 -14.7093 99° East  Level FlightAware Approximate
05:38AM 55.8369 -14.4785 99° East  Level FlightAware Approximate
05:39AM 55.8152 -14.2479 100° East  Level FlightAware Approximate
05:40AM 55.7932 -14.0176 100° East  Level FlightAware Approximate
05:41AM 55.7707 -13.7876 100° East  Level FlightAware Approximate
05:42AM 55.7478 -13.5578 100° East  Level FlightAware Approximate
05:43AM 55.7245 -13.3283 100° East  Level FlightAware Approximate
05:44AM 55.7007 -13.0991 103° East  Level FlightAware Approximate
05:45AM 55.6717 -12.8721 101° East  Level FlightAware Approximate
05:46AM 55.6472 -12.6434 101° East  Level FlightAware Approximate
05:47AM 55.6223 -12.4150 101° East  Level FlightAware Approximate
05:48AM 55.5970 -12.1869 101° East  Level FlightAware Approximate
05:49AM 55.5712 -11.9591 101° East  Level FlightAware Approximate
05:50AM 55.5450 -11.7316 102° East  Level FlightAware Approximate
05:51AM 55.5184 -11.5044 102° East  Level FlightAware Approximate
05:52AM 55.4914 -11.2776 102° East  Level FlightAware Approximate
05:53AM 55.4640 -11.0510 102° East  Level FlightAware Approximate
05:54AM 55.4361 -10.8247 102° East  Level FlightAware Approximate
05:55AM 55.4079 -10.5988 103° East  Level FlightAware Approximate
05:56AM 55.3792 -10.3732 103° East  Level FlightAware Approximate
05:57AM 55.3501 -10.1479 102° East  Level FlightAware Approximate
05:58AM 55.3230 -9.9221 103° East  Level FlightAware Approximate
05:59AM 55.2929 -9.6975 103° East  Level FlightAware Approximate
06:00AM 55.2623 -9.4734 104° East  Level FlightAware Approximate
06:01AM 55.2313 -9.2495 104° East  Level FlightAware Approximate
06:02AM 55.2015 -9.0369 104° East  Level FlightAware Approximate
06:03AM 55.1712 -8.8246 104° East  Level FlightAware Approximate
06:04AM 55.1407 -8.6126 104° East  Level FlightAware Approximate
06:05AM 55.1097 -8.4010 104° East  Level FlightAware Approximate
06:06AM 55.0784 -8.1897 105° East  Level FlightAware Approximate
06:07AM 55.0467 -7.9787 105° East  Level FlightAware Approximate
06:08AM 55.0146 -7.7680 105° East  Level FlightAware Approximate
06:09AM 54.9822 -7.5577 105° East  Level FlightAware Approximate
06:10AM 54.9494 -7.3477 105° East  Level FlightAware Approximate
06:11AM 54.9163 -7.1381 105° East  Level FlightAware Approximate
06:12AM 54.8828 -6.9288 106° East  Level FlightAware Approximate
06:13AM 54.8489 -6.7199 106° East  Level FlightAware Approximate
06:14AM 54.8147 -6.5113 106° East  Level FlightAware Approximate
06:15AM 54.7801 -6.3031 106° East  Level FlightAware Approximate
06:16AM 54.7452 -6.0952 106° East  Level FlightAware Approximate
06:17AM 54.7099 -5.8877 106° East  Level FlightAware Approximate
06:18AM 54.6743 -5.6806 107° East  Level FlightAware Approximate
06:19AM 54.6383 -5.4738 107° East  Level FlightAware Approximate
06:20AM 54.6019 -5.2674 107° East  Level FlightAware Approximate
06:21AM 54.5652 -5.0613 107° East  Level FlightAware Approximate
06:22AM 54.5282 -4.8557 107° East  Level FlightAware Approximate
06:23AM 54.4908 -4.6504 106° East  Level FlightAware Approximate
06:24AM 54.4561 -4.4439 108° East  Level FlightAware Approximate
06:25AM 54.4179 -4.2394 108° East  Level FlightAware Approximate
06:26AM 54.3795 -4.0353 108° East  Level FlightAware Approximate
06:27AM 54.3406 -3.8315 108° East  Level FlightAware Approximate
06:28AM 54.3014 -3.6281 109° East  Level FlightAware Approximate
06:29AM 54.2597 -3.4266 108° East  Level FlightAware Approximate
06:30AM 54.2199 -3.2240 109° East  Level FlightAware Approximate
06:31AM 54.1797 -3.0217 109° East  Level FlightAware Approximate
06:32AM 54.1393 -2.8199 109° East  Level FlightAware Approximate
06:33AM 54.0985 -2.6185 109° East  Level FlightAware Approximate
06:34AM 54.0573 -2.4174 109° East  Level FlightAware Approximate
06:35AM 54.0158 -2.2168 109° East  Level FlightAware Approximate
06:36AM 53.9740 -2.0166 110° East  Level FlightAware Approximate
06:37AM 53.9319 -1.8167 110° East  Level FlightAware Approximate
06:38AM 53.8894 -1.6173 107° East  Level FlightAware Approximate
06:39AM 53.8518 -1.4154 110° East  Level FlightAware Approximate
06:40AM 53.8084 -1.2169 110° East  Level FlightAware Approximate
06:41AM 53.7647 -1.0189 111° Southeast  Level FlightAware Approximate
06:42AM 53.7207 -0.8212 111° Southeast  Level FlightAware Approximate
06:43AM 53.6763 -0.6240 111° Southeast  Level FlightAware Approximate
06:44AM 53.6316 -0.4272 111° Southeast  Level FlightAware Approximate
06:45AM 53.5866 -0.2308 111° Southeast  Level FlightAware Approximate
06:46AM 53.5412 -0.0348 111° Southeast  Level FlightAware Approximate
06:47AM 53.4956 0.1608 112° Southeast  Level FlightAware Approximate
06:48AM 53.4496 0.3559 112° Southeast  Level FlightAware Approximate
06:49AM 53.4033 0.5506 112° Southeast  Level FlightAware Approximate
06:50AM 53.3567 0.7449 112° Southeast  Level FlightAware Approximate
06:51AM 53.3098 0.9388 113° Southeast  Level FlightAware Approximate
06:52AM 53.2605 1.1305 112° Southeast  Level FlightAware Approximate
06:53AM 53.2131 1.3235 112° Southeast  Level FlightAware Approximate
06:54AM 53.1653 1.5162 113° Southeast  Level FlightAware Approximate
06:55AM 53.1173 1.7084 112° Southeast  Level FlightAware Approximate
06:56AM 53.0706 1.9011 114° Southeast  Level FlightAware Approximate
06:57AM 53.0213 2.0892 111° Southeast  Level FlightAware Approximate
06:58AM 52.9755 2.2821 113° Southeast  Level FlightAware Approximate
06:59AM 52.9274 2.4736 115° Southeast  Level FlightAware Approximate
07:00AM 52.8744 2.6609 115° Southeast  Level FlightAware Approximate
07:01AM 52.8216 2.8457 113° Southeast  Level FlightAware Approximate
07:02AM 52.7722 3.0329 114° Southeast  Level FlightAware Approximate
07:03AM 52.7226 3.2197 114° Southeast  Level FlightAware Approximate
07:04AM 52.6726 3.4060 112° Southeast  Level FlightAware Approximate
07:05AM 52.6260 3.5944 114° Southeast  Level FlightAware Approximate
07:06AM 52.5748 3.7794 116° Southeast  Level FlightAware Approximate
07:07AM 52.5210 3.9619 117° Southeast  Level FlightAware Approximate
07:08AM 52.4644 4.1420 113° Southeast  Level FlightAware Approximate
07:09AM 52.4151 4.3278 113° Southeast  Level FlightAware Approximate
07:10AM 52.3684 4.5116 115° Southeast  Level FlightAware Approximate
07:11AM 52.3159 4.6945 100° East  Level FlightAware Approximate
07:12AM 52.2949 4.8935 289° West  Level Estimated
07:13AM 52.3862 4.4583 116° Southeast  Level FlightAware Approximate
07:14AM 52.3316 4.6396 107° East  Level FlightAware Approximate
07:15AM 52.2958 4.8329 287° West  Level Estimated
07:16AM 52.3316 4.6396 107° East  Level Estimated
07:17AM 52.2958 4.8329 287° West  Level Estimated
07:18AM 52.3316 4.6396 115° Southeast  Level Estimated
07:19AM 52.3000 4.7500 45° Northeast  Level FlightAware Approximate
07:20AM 52.3879 4.8920 45° Northeast  Level Estimated